sensor_id;sensor_type;location;lat;lon;timestamp;pressure;altitude;pressure_sealevel;temperature;humidity
75543;BME280;64129;53.508;10.476;2024-01-10T00:02:24;103159.16;;;-7.32;83.17
75543;BME280;64129;53.508;10.476;2024-01-10T00:04:58;103158.25;;;-7.48;85.57
75543;BME280;64129;53.508;10.476;2024-01-10T00:07:35;103161.81;;;-7.55;86.26
75543;BME280;64129;53.508;10.476;2024-01-10T00:10:13;103155.63;;;-7.41;85.74
75543;BME280;64129;53.508;10.476;2024-01-10T00:12:40;103153.44;;;-7.29;85.03
75543;BME280;64129;53.508;10.476;2024-01-10T00:15:30;103164.25;;;-7.48;87.08
75543;BME280;64129;53.508;10.476;2024-01-10T00:18:00;103161.63;;;-7.40;85.89
75543;BME280;64129;53.508;10.476;2024-01-10T00:20:44;103153.66;;;-7.19;83.57
75543;BME280;64129;53.508;10.476;2024-01-10T00:23:24;103155.66;;;-7.16;84.31
75543;BME280;64129;53.508;10.476;2024-01-10T00:25:55;103169.22;;;-7.25;84.67
75543;BME280;64129;53.508;10.476;2024-01-10T00:28:25;103164.41;;;-7.30;84.56
75543;BME280;64129;53.508;10.476;2024-01-10T00:30:52;103161.00;;;-7.22;85.49
75543;BME280;64129;53.508;10.476;2024-01-10T00:33:29;103153.09;;;-7.16;85.54
75543;BME280;64129;53.508;10.476;2024-01-10T00:36:17;103163.88;;;-7.19;87.00
75543;BME280;64129;53.508;10.476;2024-01-10T00:38:48;103156.63;;;-7.23;86.15
75543;BME280;64129;53.508;10.476;2024-01-10T00:41:17;103156.81;;;-7.37;87.81
75543;BME280;64129;53.508;10.476;2024-01-10T00:43:49;103153.97;;;-7.56;88.29
75543;BME280;64129;53.508;10.476;2024-01-10T00:46:19;103156.19;;;-7.43;88.62
75543;BME280;64129;53.508;10.476;2024-01-10T00:48:46;103160.06;;;-7.07;85.94
75543;BME280;64129;53.508;10.476;2024-01-10T00:51:13;103161.81;;;-7.14;85.70
75543;BME280;64129;53.508;10.476;2024-01-10T00:53:47;103157.72;;;-7.37;87.37
75543;BME280;64129;53.508;10.476;2024-01-10T00:56:14;103162.13;;;-7.11;86.83
75543;BME280;64129;53.508;10.476;2024-01-10T00:58:58;103159.16;;;-7.32;87.65
75543;BME280;64129;53.508;10.476;2024-01-10T01:01:28;103154.47;;;-7.52;88.38
75543;BME280;64129;53.508;10.476;2024-01-10T01:03:58;103154.66;;;-7.50;87.87
75543;BME280;64129;53.508;10.476;2024-01-10T01:06:27;103159.66;;;-7.19;86.46
75543;BME280;64129;53.508;10.476;2024-01-10T01:09:05;103159.84;;;-7.17;86.80
75543;BME280;64129;53.508;10.476;2024-01-10T01:11:53;103156.91;;;-7.04;85.69
75543;BME280;64129;53.508;10.476;2024-01-10T01:14:23;103153.38;;;-7.22;84.60
75543;BME280;64129;53.508;10.476;2024-01-10T01:16:51;103152.13;;;-7.26;85.50
75543;BME280;64129;53.508;10.476;2024-01-10T01:19:28;103146.13;;;-7.26;85.28
75543;BME280;64129;53.508;10.476;2024-01-10T01:21:55;103151.66;;;-7.46;84.99
75543;BME280;64129;53.508;10.476;2024-01-10T01:24:27;103160.06;;;-7.47;85.30
75543;BME280;64129;53.508;10.476;2024-01-10T01:27:08;103155.22;;;-7.53;86.82
75543;BME280;64129;53.508;10.476;2024-01-10T01:29:54;103159.97;;;-7.40;85.68
75543;BME280;64129;53.508;10.476;2024-01-10T01:32:34;103153.34;;;-7.62;87.04
75543;BME280;64129;53.508;10.476;2024-01-10T01:35:14;103151.13;;;-7.59;86.04
75543;BME280;64129;53.508;10.476;2024-01-10T01:37:59;103141.22;;;-7.56;86.53
75543;BME280;64129;53.508;10.476;2024-01-10T01:40:33;103150.84;;;-7.54;85.46
75543;BME280;64129;53.508;10.476;2024-01-10T01:43:25;103146.81;;;-7.36;84.95
75543;BME280;64129;53.508;10.476;2024-01-10T01:46:03;103149.31;;;-7.76;86.31
75543;BME280;64129;53.508;10.476;2024-01-10T01:48:38;103157.44;;;-7.72;86.35
75543;BME280;64129;53.508;10.476;2024-01-10T01:51:09;103150.47;;;-7.81;85.52
75543;BME280;64129;53.508;10.476;2024-01-10T01:53:48;103152.53;;;-7.86;84.90
75543;BME280;64129;53.508;10.476;2024-01-10T01:56:29;103147.16;;;-7.80;85.29
75543;BME280;64129;53.508;10.476;2024-01-10T01:59:01;103145.44;;;-7.73;84.99
75543;BME280;64129;53.508;10.476;2024-01-10T02:01:35;103154.41;;;-7.76;84.21
75543;BME280;64129;53.508;10.476;2024-01-10T02:04:18;103160.00;;;-7.87;84.77
75543;BME280;64129;53.508;10.476;2024-01-10T02:07:16;103163.09;;;-7.74;84.39
75543;BME280;64129;53.508;10.476;2024-01-10T02:10:10;103167.88;;;-7.93;85.12
75543;BME280;64129;53.508;10.476;2024-01-10T02:12:43;103162.16;;;-7.83;83.51
75543;BME280;64129;53.508;10.476;2024-01-10T02:15:17;103164.75;;;-7.75;84.82
75543;BME280;64129;53.508;10.476;2024-01-10T02:17:47;103171.50;;;-7.91;85.32
75543;BME280;64129;53.508;10.476;2024-01-10T02:20:27;103157.97;;;-7.83;84.80
75543;BME280;64129;53.508;10.476;2024-01-10T02:23:04;103151.97;;;-7.83;84.24
75543;BME280;64129;53.508;10.476;2024-01-10T02:25:35;103143.72;;;-7.81;84.27
75543;BME280;64129;53.508;10.476;2024-01-10T02:28:05;103148.16;;;-7.87;83.64
75543;BME280;64129;53.508;10.476;2024-01-10T02:30:36;103146.75;;;-8.08;84.11
75543;BME280;64129;53.508;10.476;2024-01-10T02:33:09;103154.81;;;-7.96;83.68
75543;BME280;64129;53.508;10.476;2024-01-10T02:35:42;103154.97;;;-7.79;84.08
75543;BME280;64129;53.508;10.476;2024-01-10T02:38:29;103151.50;;;-7.79;83.39
75543;BME280;64129;53.508;10.476;2024-01-10T02:40:59;103150.22;;;-7.76;82.62
75543;BME280;64129;53.508;10.476;2024-01-10T02:43:44;103157.94;;;-7.99;85.22
75543;BME280;64129;53.508;10.476;2024-01-10T02:46:11;103162.06;;;-7.92;83.88
75543;BME280;64129;53.508;10.476;2024-01-10T02:48:38;103155.31;;;-7.76;84.62
75543;BME280;64129;53.508;10.476;2024-01-10T02:51:10;103147.19;;;-7.64;83.74
75543;BME280;64129;53.508;10.476;2024-01-10T02:53:43;103145.69;;;-7.78;84.74
75543;BME280;64129;53.508;10.476;2024-01-10T02:56:10;103144.63;;;-7.80;84.91
75543;BME280;64129;53.508;10.476;2024-01-10T02:58:48;103144.38;;;-7.59;84.69
75543;BME280;64129;53.508;10.476;2024-01-10T03:01:18;103141.59;;;-7.69;83.91
75543;BME280;64129;53.508;10.476;2024-01-10T03:03:52;103141.91;;;-7.82;85.02
75543;BME280;64129;53.508;10.476;2024-01-10T03:06:19;103146.91;;;-7.75;84.62
75543;BME280;64129;53.508;10.476;2024-01-10T03:09:10;103135.81;;;-7.75;83.83
75543;BME280;64129;53.508;10.476;2024-01-10T03:11:37;103137.13;;;-7.94;86.10
75543;BME280;64129;53.508;10.476;2024-01-10T03:14:13;103135.44;;;-7.87;85.87
75543;BME280;64129;53.508;10.476;2024-01-10T03:16:53;103140.59;;;-8.10;83.38
75543;BME280;64129;53.508;10.476;2024-01-10T03:19:31;103134.25;;;-7.66;83.04
75543;BME280;64129;53.508;10.476;2024-01-10T03:22:04;103137.31;;;-7.77;84.67
75543;BME280;64129;53.508;10.476;2024-01-10T03:24:36;103151.69;;;-7.78;84.43
75543;BME280;64129;53.508;10.476;2024-01-10T03:27:04;103138.38;;;-7.75;85.20
75543;BME280;64129;53.508;10.476;2024-01-10T03:29:34;103142.72;;;-7.90;84.49
75543;BME280;64129;53.508;10.476;2024-01-10T03:32:16;103138.84;;;-7.55;83.05
75543;BME280;64129;53.508;10.476;2024-01-10T03:34:48;103134.91;;;-7.60;82.45
75543;BME280;64129;53.508;10.476;2024-01-10T03:37:30;103125.34;;;-7.70;82.90
75543;BME280;64129;53.508;10.476;2024-01-10T03:40:01;103123.63;;;-7.62;83.50
75543;BME280;64129;53.508;10.476;2024-01-10T03:42:32;103112.59;;;-7.54;83.24
75543;BME280;64129;53.508;10.476;2024-01-10T03:45:01;103127.09;;;-7.61;84.09
75543;BME280;64129;53.508;10.476;2024-01-10T03:48:08;103119.94;;;-7.32;83.29
75543;BME280;64129;53.508;10.476;2024-01-10T03:50:40;103115.53;;;-7.42;84.09
75543;BME280;64129;53.508;10.476;2024-01-10T03:53:07;103115.72;;;-7.40;84.64
75543;BME280;64129;53.508;10.476;2024-01-10T03:55:51;103117.38;;;-7.16;85.52
75543;BME280;64129;53.508;10.476;2024-01-10T03:58:23;103119.59;;;-7.20;85.42
75543;BME280;64129;53.508;10.476;2024-01-10T04:01:08;103117.22;;;-7.18;85.78
75543;BME280;64129;53.508;10.476;2024-01-10T04:03:44;103110.50;;;-7.09;85.34
75543;BME280;64129;53.508;10.476;2024-01-10T04:06:51;103109.16;;;-7.05;85.97
75543;BME280;64129;53.508;10.476;2024-01-10T04:09:18;103101.25;;;-7.00;86.48
75543;BME280;64129;53.508;10.476;2024-01-10T04:11:51;103116.88;;;-6.97;86.52
75543;BME280;64129;53.508;10.476;2024-01-10T04:14:18;103118.53;;;-6.97;86.75
75543;BME280;64129;53.508;10.476;2024-01-10T04:16:45;103107.75;;;-6.95;86.13
75543;BME280;64129;53.508;10.476;2024-01-10T04:19:14;103106.09;;;-6.94;86.83
75543;BME280;64129;53.508;10.476;2024-01-10T04:21:50;103101.34;;;-6.82;86.75
75543;BME280;64129;53.508;10.476;2024-01-10T04:24:18;103104.16;;;-6.88;87.39
75543;BME280;64129;53.508;10.476;2024-01-10T04:26:51;103102.88;;;-6.76;87.18
75543;BME280;64129;53.508;10.476;2024-01-10T04:29:17;103104.38;;;-6.78;87.31
75543;BME280;64129;53.508;10.476;2024-01-10T04:31:45;103102.34;;;-6.56;86.95
75543;BME280;64129;53.508;10.476;2024-01-10T04:34:20;103113.47;;;-6.55;86.74
75543;BME280;64129;53.508;10.476;2024-01-10T04:36:52;103102.09;;;-6.42;87.62
75543;BME280;64129;53.508;10.476;2024-01-10T04:39:25;103108.69;;;-6.44;87.36
75543;BME280;64129;53.508;10.476;2024-01-10T04:42:10;103102.16;;;-6.24;86.92
75543;BME280;64129;53.508;10.476;2024-01-10T04:45:00;103106.63;;;-6.30;88.07
75543;BME280;64129;53.508;10.476;2024-01-10T04:47:27;103098.25;;;-6.29;87.71
75543;BME280;64129;53.508;10.476;2024-01-10T04:50:00;103105.47;;;-6.08;86.84
75543;BME280;64129;53.508;10.476;2024-01-10T04:52:29;103090.16;;;-6.08;86.94
75543;BME280;64129;53.508;10.476;2024-01-10T04:54:58;103092.84;;;-6.15;87.35
75543;BME280;64129;53.508;10.476;2024-01-10T04:57:26;103099.31;;;-6.19;87.95
75543;BME280;64129;53.508;10.476;2024-01-10T04:59:59;103096.59;;;-6.11;88.20
75543;BME280;64129;53.508;10.476;2024-01-10T05:02:26;103092.25;;;-6.12;88.52
75543;BME280;64129;53.508;10.476;2024-01-10T05:04:53;103097.38;;;-5.95;88.40
75543;BME280;64129;53.508;10.476;2024-01-10T05:07:20;103094.06;;;-6.03;88.71
75543;BME280;64129;53.508;10.476;2024-01-10T05:09:51;103094.50;;;-6.07;89.09
75543;BME280;64129;53.508;10.476;2024-01-10T05:12:18;103096.78;;;-6.01;89.36
75543;BME280;64129;53.508;10.476;2024-01-10T05:14:52;103100.97;;;-5.93;89.43
75543;BME280;64129;53.508;10.476;2024-01-10T05:17:21;103104.72;;;-5.81;88.88
75543;BME280;64129;53.508;10.476;2024-01-10T05:19:57;103099.19;;;-5.94;89.84
75543;BME280;64129;53.508;10.476;2024-01-10T05:22:35;103090.59;;;-5.86;89.68
75543;BME280;64129;53.508;10.476;2024-01-10T05:25:09;103090.44;;;-5.79;90.10
75543;BME280;64129;53.508;10.476;2024-01-10T05:27:42;103089.84;;;-5.68;89.67
75543;BME280;64129;53.508;10.476;2024-01-10T05:30:17;103088.19;;;-5.76;90.11
75543;BME280;64129;53.508;10.476;2024-01-10T05:32:54;103085.94;;;-5.73;89.97
75543;BME280;64129;53.508;10.476;2024-01-10T05:35:24;103082.47;;;-5.73;90.29
75543;BME280;64129;53.508;10.476;2024-01-10T05:37:55;103081.28;;;-5.68;90.42
75543;BME280;64129;53.508;10.476;2024-01-10T05:40:28;103076.44;;;-5.65;90.60
75543;BME280;64129;53.508;10.476;2024-01-10T05:43:04;103079.63;;;-5.68;90.87
75543;BME280;64129;53.508;10.476;2024-01-10T05:45:34;103082.59;;;-5.46;90.33
75543;BME280;64129;53.508;10.476;2024-01-10T05:48:12;103084.41;;;-5.45;90.12
75543;BME280;64129;53.508;10.476;2024-01-10T05:50:56;103091.16;;;-5.36;89.82
75543;BME280;64129;53.508;10.476;2024-01-10T05:53:46;103092.53;;;-5.31;90.02
75543;BME280;64129;53.508;10.476;2024-01-10T05:56:13;103089.53;;;-5.53;91.35
75543;BME280;64129;53.508;10.476;2024-01-10T05:58:42;103084.38;;;-5.27;90.48
75543;BME280;64129;53.508;10.476;2024-01-10T06:01:12;103082.88;;;-5.34;90.56
75543;BME280;64129;53.508;10.476;2024-01-10T06:03:50;103078.22;;;-5.29;89.75
75543;BME280;64129;53.508;10.476;2024-01-10T06:06:38;103086.47;;;-5.32;90.36
75543;BME280;64129;53.508;10.476;2024-01-10T06:09:22;103092.97;;;-5.27;90.48
75543;BME280;64129;53.508;10.476;2024-01-10T06:12:17;103084.25;;;-5.38;90.55
75543;BME280;64129;53.508;10.476;2024-01-10T06:14:57;103082.88;;;-5.34;91.09
75543;BME280;64129;53.508;10.476;2024-01-10T06:17:48;103089.44;;;-5.10;90.19
75543;BME280;64129;53.508;10.476;2024-01-10T06:20:24;103081.19;;;-5.16;90.36
75543;BME280;64129;53.508;10.476;2024-01-10T06:22:54;103080.41;;;-5.06;89.84
75543;BME280;64129;53.508;10.476;2024-01-10T06:25:30;103085.22;;;-5.09;90.65
75543;BME280;64129;53.508;10.476;2024-01-10T06:27:57;103085.22;;;-5.09;90.42
75543;BME280;64129;53.508;10.476;2024-01-10T06:30:50;103079.66;;;-5.05;90.36
75543;BME280;64129;53.508;10.476;2024-01-10T06:33:26;103082.94;;;-4.98;89.99
75543;BME280;64129;53.508;10.476;2024-01-10T06:35:55;103076.19;;;-5.06;90.65
75543;BME280;64129;53.508;10.476;2024-01-10T06:38:41;103072.53;;;-4.99;90.30
75543;BME280;64129;53.508;10.476;2024-01-10T06:41:16;103071.06;;;-4.97;90.37
75543;BME280;64129;53.508;10.476;2024-01-10T06:43:46;103071.94;;;-4.97;89.63
75543;BME280;64129;53.508;10.476;2024-01-10T06:46:14;103079.41;;;-4.81;89.27
75543;BME280;64129;53.508;10.476;2024-01-10T06:48:49;103085.78;;;-4.95;89.24
75543;BME280;64129;53.508;10.476;2024-01-10T06:51:33;103078.00;;;-5.05;89.95
75543;BME280;64129;53.508;10.476;2024-01-10T06:54:16;103084.34;;;-5.10;89.68
75543;BME280;64129;53.508;10.476;2024-01-10T06:56:55;103078.72;;;-4.89;89.29
75543;BME280;64129;53.508;10.476;2024-01-10T06:59:25;103077.31;;;-4.85;88.60
75543;BME280;64129;53.508;10.476;2024-01-10T07:02:03;103075.28;;;-4.98;90.08
75543;BME280;64129;53.508;10.476;2024-01-10T07:04:46;103066.06;;;-4.96;89.32
75543;BME280;64129;53.508;10.476;2024-01-10T07:07:15;103071.94;;;-4.97;90.37
75543;BME280;64129;53.508;10.476;2024-01-10T07:09:48;103071.66;;;-5.00;89.76
75543;BME280;64129;53.508;10.476;2024-01-10T07:12:23;103080.41;;;-5.06;90.34
75543;BME280;64129;53.508;10.476;2024-01-10T07:14:53;103074.41;;;-5.16;90.21
75543;BME280;64129;53.508;10.476;2024-01-10T07:17:23;103075.97;;;-5.35;90.60
75543;BME280;64129;53.508;10.476;2024-01-10T07:19:56;103082.09;;;-5.16;90.48
75543;BME280;64129;53.508;10.476;2024-01-10T07:22:23;103073.78;;;-5.13;89.95
75543;BME280;64129;53.508;10.476;2024-01-10T07:24:58;103074.06;;;-5.01;89.06
75543;BME280;64129;53.508;10.476;2024-01-10T07:27:36;103078.00;;;-5.05;89.89
75543;BME280;64129;53.508;10.476;2024-01-10T07:30:08;103083.44;;;-5.10;89.83
75543;BME280;64129;53.508;10.476;2024-01-10T07:32:59;103085.22;;;-5.09;89.95
75543;BME280;64129;53.508;10.476;2024-01-10T07:35:26;103083.78;;;-5.25;90.16
75543;BME280;64129;53.508;10.476;2024-01-10T07:38:19;103087.34;;;-5.05;89.84
75543;BME280;64129;53.508;10.476;2024-01-10T07:40:58;103076.91;;;-4.90;89.27
75543;BME280;64129;53.508;10.476;2024-01-10T07:43:26;103071.78;;;-4.90;88.94
75543;BME280;64129;53.508;10.476;2024-01-10T07:45:57;103071.50;;;-4.93;88.05
75543;BME280;64129;53.508;10.476;2024-01-10T07:48:24;103071.91;;;-4.79;87.96
75543;BME280;64129;53.508;10.476;2024-01-10T07:51:02;103083.59;;;-5.18;89.42
75543;BME280;64129;53.508;10.476;2024-01-10T07:53:46;103090.66;;;-5.06;88.75
75543;BME280;64129;53.508;10.476;2024-01-10T07:56:21;103094.00;;;-5.25;89.48
75543;BME280;64129;53.508;10.476;2024-01-10T07:59:12;103101.47;;;-4.92;89.43
75543;BME280;64129;53.508;10.476;2024-01-10T08:01:44;103104.00;;;-4.92;88.53
75543;BME280;64129;53.508;10.476;2024-01-10T08:04:27;103103.44;;;-4.98;88.59
75543;BME280;64129;53.508;10.476;2024-01-10T08:06:59;103096.47;;;-4.90;88.84
75543;BME280;64129;53.508;10.476;2024-01-10T08:09:34;103097.22;;;-4.82;88.37
75543;BME280;64129;53.508;10.476;2024-01-10T08:12:08;103098.44;;;-4.88;88.89
75543;BME280;64129;53.508;10.476;2024-01-10T08:14:35;103110.03;;;-4.91;88.92
75543;BME280;64129;53.508;10.476;2024-01-10T08:17:24;103117.13;;;-4.97;88.93
75543;BME280;64129;53.508;10.476;2024-01-10T08:19:58;103103.78;;;-4.76;87.99
75543;BME280;64129;53.508;10.476;2024-01-10T08:22:43;103100.66;;;-4.82;88.59
75543;BME280;64129;53.508;10.476;2024-01-10T08:25:17;103112.28;;;-4.85;88.85
75543;BME280;64129;53.508;10.476;2024-01-10T08:27:57;103103.72;;;-4.22;90.43
75543;BME280;64129;53.508;10.476;2024-01-10T08:30:26;103102.75;;;-4.78;87.85
75543;BME280;64129;53.508;10.476;2024-01-10T08:33:00;103106.66;;;-4.73;88.34
75543;BME280;64129;53.508;10.476;2024-01-10T08:35:52;103107.78;;;-4.88;88.36
75543;BME280;64129;53.508;10.476;2024-01-10T08:38:27;103116.50;;;-4.95;88.85
75543;BME280;64129;53.508;10.476;2024-01-10T08:41:02;103108.69;;;-4.88;89.21
75543;BME280;64129;53.508;10.476;2024-01-10T08:43:37;103104.44;;;-4.78;89.54
75543;BME280;64129;53.508;10.476;2024-01-10T08:46:04;103110.28;;;-4.71;88.22
75543;BME280;64129;53.508;10.476;2024-01-10T08:48:49;103106.63;;;-4.64;88.50
75543;BME280;64129;53.508;10.476;2024-01-10T08:51:17;103102.06;;;-4.58;87.77
75543;BME280;64129;53.508;10.476;2024-01-10T08:54:06;103103.28;;;-4.54;88.18
75543;BME280;64129;53.508;10.476;2024-01-10T08:56:38;103101.97;;;-4.32;86.92
75543;BME280;64129;53.508;10.476;2024-01-10T08:59:18;103098.97;;;-4.73;88.12
75543;BME280;64129;53.508;10.476;2024-01-10T09:01:56;103097.84;;;-4.30;87.66
75543;BME280;64129;53.508;10.476;2024-01-10T09:04:36;103103.88;;;-4.29;87.18
75543;BME280;64129;53.508;10.476;2024-01-10T09:07:07;103098.06;;;-4.09;86.73
75543;BME280;64129;53.508;10.476;2024-01-10T09:09:58;103093.09;;;-4.17;87.32
75543;BME280;64129;53.508;10.476;2024-01-10T09:12:34;103092.94;;;-4.09;86.93
75543;BME280;64129;53.508;10.476;2024-01-10T09:15:10;103095.53;;;-4.18;87.50
75543;BME280;64129;53.508;10.476;2024-01-10T09:17:53;103093.84;;;-4.37;87.37
75543;BME280;64129;53.508;10.476;2024-01-10T09:20:22;103086.53;;;-4.23;86.88
75543;BME280;64129;53.508;10.476;2024-01-10T09:22:50;103084.47;;;-4.36;87.46
75543;BME280;64129;53.508;10.476;2024-01-10T09:25:26;103075.22;;;-4.25;87.21
75543;BME280;64129;53.508;10.476;2024-01-10T09:27:57;103073.84;;;-4.03;87.33
75543;BME280;64129;53.508;10.476;2024-01-10T09:30:28;103069.84;;;-3.91;85.70
75543;BME280;64129;53.508;10.476;2024-01-10T09:32:55;103074.13;;;-4.19;87.47
75543;BME280;64129;53.508;10.476;2024-01-10T09:35:29;103068.28;;;-4.26;87.46
75543;BME280;64129;53.508;10.476;2024-01-10T09:37:56;103067.78;;;-3.95;86.07
75543;BME280;64129;53.508;10.476;2024-01-10T09:40:28;103063.00;;;-4.00;86.73
75543;BME280;64129;53.508;10.476;2024-01-10T09:42:56;103071.16;;;-3.67;85.93
75543;BME280;64129;53.508;10.476;2024-01-10T09:45:36;103064.91;;;-3.98;87.65
75543;BME280;64129;53.508;10.476;2024-01-10T09:48:21;103063.25;;;-3.78;86.40
75543;BME280;64129;53.508;10.476;2024-01-10T09:50:50;103065.06;;;-3.58;85.32
75543;BME280;64129;53.508;10.476;2024-01-10T09:53:26;103064.56;;;-3.92;86.76
75543;BME280;64129;53.508;10.476;2024-01-10T09:56:05;103057.53;;;-3.47;84.86
75543;BME280;64129;53.508;10.476;2024-01-10T09:58:38;103065.31;;;-3.08;85.65
75543;BME280;64129;53.508;10.476;2024-01-10T10:01:13;103061.50;;;-2.82;86.33
75543;BME280;64129;53.508;10.476;2024-01-10T10:03:41;103062.75;;;-3.55;85.96
75543;BME280;64129;53.508;10.476;2024-01-10T10:06:14;103056.31;;;-3.02;84.30
75543;BME280;64129;53.508;10.476;2024-01-10T10:08:51;103058.03;;;-2.93;83.13
75543;BME280;64129;53.508;10.476;2024-01-10T10:11:18;103065.69;;;-3.32;84.99
75543;BME280;64129;53.508;10.476;2024-01-10T10:13:49;103067.44;;;-3.41;84.67
75543;BME280;64129;53.508;10.476;2024-01-10T10:16:27;103060.34;;;-3.25;83.62
75543;BME280;64129;53.508;10.476;2024-01-10T10:19:11;103066.00;;;-3.48;84.90
75543;BME280;64129;53.508;10.476;2024-01-10T10:22:07;103059.53;;;-3.34;84.19
75543;BME280;64129;53.508;10.476;2024-01-10T10:24:52;103066.34;;;-2.95;83.10
75543;BME280;64129;53.508;10.476;2024-01-10T10:27:23;103072.13;;;-3.27;84.24
75543;BME280;64129;53.508;10.476;2024-01-10T10:30:01;103069.84;;;-3.24;84.20
75543;BME280;64129;53.508;10.476;2024-01-10T10:32:31;103073.09;;;-3.64;85.35
75543;BME280;64129;53.508;10.476;2024-01-10T10:34:58;103070.34;;;-3.76;86.19
75543;BME280;64129;53.508;10.476;2024-01-10T10:37:30;103058.75;;;-3.62;84.85
75543;BME280;64129;53.508;10.476;2024-01-10T10:39:59;103057.00;;;-3.24;84.18
75543;BME280;64129;53.508;10.476;2024-01-10T10:42:28;103066.88;;;-3.76;85.71
75543;BME280;64129;53.508;10.476;2024-01-10T10:45:18;103067.94;;;-3.45;85.55
75543;BME280;64129;53.508;10.476;2024-01-10T10:47:47;103071.06;;;-3.39;84.86
75543;BME280;64129;53.508;10.476;2024-01-10T10:50:28;103071.63;;;-3.52;85.16
75543;BME280;64129;53.508;10.476;2024-01-10T10:53:09;103073.75;;;-3.38;84.89
75543;BME280;64129;53.508;10.476;2024-01-10T10:55:37;103075.50;;;-3.47;85.57
75543;BME280;64129;53.508;10.476;2024-01-10T10:58:13;103079.53;;;-3.40;84.58
75543;BME280;64129;53.508;10.476;2024-01-10T11:00:57;103074.69;;;-3.56;85.18
75543;BME280;64129;53.508;10.476;2024-01-10T11:03:31;103079.41;;;-3.79;85.17
75543;BME280;64129;53.508;10.476;2024-01-10T11:06:02;103073.25;;;-3.34;84.07
75543;BME280;64129;53.508;10.476;2024-01-10T11:08:50;103074.06;;;-3.53;85.42
75543;BME280;64129;53.508;10.476;2024-01-10T11:14:56;103074.09;;;-3.24;83.96
75543;BME280;64129;53.508;10.476;2024-01-10T11:23:40;103075.22;;;-3.31;84.24
75543;BME280;64129;53.508;10.476;2024-01-10T11:26:16;103063.97;;;-3.13;83.51
75543;BME280;64129;53.508;10.476;2024-01-10T11:29:00;103062.50;;;-2.90;83.60
75543;BME280;64129;53.508;10.476;2024-01-10T11:31:32;103058.78;;;-2.94;84.30
75543;BME280;64129;53.508;10.476;2024-01-10T11:34:02;103050.13;;;-2.65;83.36
75543;BME280;64129;53.508;10.476;2024-01-10T11:37:09;103053.03;;;-2.81;84.14
75543;BME280;64129;53.508;10.476;2024-01-10T11:39:37;103060.72;;;-3.30;86.03
75543;BME280;64129;53.508;10.476;2024-01-10T11:42:11;103055.25;;;-3.15;85.75
75543;BME280;64129;53.508;10.476;2024-01-10T11:44:47;103057.84;;;-3.04;85.14
75543;BME280;64129;53.508;10.476;2024-01-10T11:47:37;103046.69;;;-2.95;84.24
75543;BME280;64129;53.508;10.476;2024-01-10T11:50:18;103049.13;;;-2.96;85.12
75543;BME280;64129;53.508;10.476;2024-01-10T11:52:59;103045.56;;;-2.98;85.35
75543;BME280;64129;53.508;10.476;2024-01-10T11:55:50;103040.19;;;-2.71;84.96
75543;BME280;64129;53.508;10.476;2024-01-10T11:58:31;103037.47;;;-2.83;84.36
75543;BME280;64129;53.508;10.476;2024-01-10T12:01:06;103044.44;;;-2.71;84.66
75543;BME280;64129;53.508;10.476;2024-01-10T12:03:37;103042.22;;;-2.97;84.99
75543;BME280;64129;53.508;10.476;2024-01-10T12:06:30;103047.75;;;-2.93;84.33
75543;BME280;64129;53.508;10.476;2024-01-10T12:09:06;103033.34;;;-2.91;85.36
75543;BME280;64129;53.508;10.476;2024-01-10T12:11:42;103034.22;;;-3.00;84.97
75543;BME280;64129;53.508;10.476;2024-01-10T12:14:09;103035.53;;;-2.85;84.25
75543;BME280;64129;53.508;10.476;2024-01-10T12:16:37;103024.66;;;-2.62;84.56
75543;BME280;64129;53.508;10.476;2024-01-10T12:19:14;103023.56;;;-2.95;85.19
75543;BME280;64129;53.508;10.476;2024-01-10T12:21:50;103024.41;;;-3.15;86.19
75543;BME280;64129;53.508;10.476;2024-01-10T12:24:18;103021.19;;;-2.52;84.31
75543;BME280;64129;53.508;10.476;2024-01-10T12:26:49;103012.41;;;-2.85;85.01
75543;BME280;64129;53.508;10.476;2024-01-10T12:29:27;103010.28;;;-2.60;84.66
75543;BME280;64129;53.508;10.476;2024-01-10T12:31:54;103010.50;;;-2.67;84.20
75543;BME280;64129;53.508;10.476;2024-01-10T12:34:29;103009.13;;;-2.64;84.75
75543;BME280;64129;53.508;10.476;2024-01-10T12:37:03;103013.84;;;-2.89;85.30
75543;BME280;64129;53.508;10.476;2024-01-10T12:39:33;103001.22;;;-2.96;86.31
75543;BME280;64129;53.508;10.476;2024-01-10T12:42:04;103008.72;;;-2.89;84.90
75543;BME280;64129;53.508;10.476;2024-01-10T12:44:35;103003.19;;;-2.83;84.42
75543;BME280;64129;53.508;10.476;2024-01-10T12:47:27;103006.53;;;-2.74;84.72
75543;BME280;64129;53.508;10.476;2024-01-10T12:50:02;103000.63;;;-2.73;85.68
75543;BME280;64129;53.508;10.476;2024-01-10T12:52:33;103002.97;;;-2.55;84.13
75543;BME280;64129;53.508;10.476;2024-01-10T12:55:12;102999.22;;;-2.79;85.85
75543;BME280;64129;53.508;10.476;2024-01-10T12:57:53;103001.91;;;-2.68;84.92
75543;BME280;64129;53.508;10.476;2024-01-10T13:00:36;103001.13;;;-2.67;84.77
75543;BME280;64129;53.508;10.476;2024-01-10T13:03:06;103002.56;;;-2.60;84.08
75543;BME280;64129;53.508;10.476;2024-01-10T13:05:45;102999.72;;;-2.63;84.13
75543;BME280;64129;53.508;10.476;2024-01-10T13:08:21;102996.09;;;-2.86;84.97
75543;BME280;64129;53.508;10.476;2024-01-10T13:11:02;102995.75;;;-2.70;84.98
75543;BME280;64129;53.508;10.476;2024-01-10T13:13:53;102995.31;;;-2.95;86.45
75543;BME280;64129;53.508;10.476;2024-01-10T13:16:31;102996.53;;;-2.61;84.77
75543;BME280;64129;53.508;10.476;2024-01-10T13:19:00;102990.06;;;-2.86;85.60
75543;BME280;64129;53.508;10.476;2024-01-10T13:21:28;102989.53;;;-2.00;81.89
75543;BME280;64129;53.508;10.476;2024-01-10T13:24:12;102996.50;;;-2.10;83.35
75543;BME280;64129;53.508;10.476;2024-01-10T13:26:46;102995.13;;;-2.37;83.51
75543;BME280;64129;53.508;10.476;2024-01-10T13:29:25;102972.44;;;4.84;71.90
75543;BME280;64129;53.508;10.476;2024-01-10T13:32:12;103002.66;;;-2.08;82.23
75543;BME280;64129;53.508;10.476;2024-01-10T13:34:43;102996.13;;;-2.24;82.10